Time;durP1;ratioP1;P1;durP2;ratioP2;P2;SDS_P1;SDS_P2;PMS_P1;PMS_P2;Temp;Humidity;BMP_temperature;BMP_pressure;BME280_temperature;BME280_humidity;BME280_pressure;Samples;Min_cycle;Max_cycle;Signal;HPM_P1;HPM_P2
2023/05/14 00:01:45;;;;;;;7.57;5.30;;;;;;;-140.66;100.00;55571.53;5106505;28;20035;-76
2023/05/14 00:04:31;;;;;;;9.23;5.05;;;;;;;-140.66;100.00;55571.53;5103819;28;20028;-76
2023/05/14 00:07:16;;;;;;;8.05;5.13;;;;;;;-140.66;100.00;55571.53;5093322;28;20031;-74
2023/05/14 00:10:02;;;;;;;9.55;5.63;;;;;;;-140.66;100.00;55571.53;5093074;28;20340;-76
2023/05/14 00:12:50;;;;;;;8.05;5.38;;;;;;;-140.66;100.00;55571.53;5092927;28;20077;-76
2023/05/14 00:15:36;;;;;;;9.75;5.57;;;;;;;-140.66;100.00;55571.53;5094440;28;20024;-76
2023/05/14 00:18:21;;;;;;;9.77;6.05;;;;;;;-140.66;100.00;55571.53;5093103;28;20027;-78
2023/05/14 00:21:07;;;;;;;7.43;5.20;;;;;;;-140.66;100.00;55571.53;5109831;28;20028;-74
2023/05/14 00:23:53;;;;;;;8.90;5.30;;;;;;;-140.66;100.00;55571.53;5099619;28;20062;-74
2023/05/14 00:26:39;;;;;;;10.45;5.18;;;;;;;-140.66;100.00;55571.53;5096579;28;20106;-76
2023/05/14 00:29:24;;;;;;;9.10;5.63;;;;;;;-140.66;100.00;55571.53;5096087;28;20052;-75
2023/05/14 00:32:10;;;;;;;6.95;5.50;;;;;;;-140.66;100.00;55571.53;5096847;28;20044;-74
2023/05/14 00:34:56;;;;;;;6.72;5.15;;;;;;;-140.66;100.00;55571.53;5096178;28;20111;-74
2023/05/14 00:37:42;;;;;;;6.75;5.60;;;;;;;-140.66;100.00;55571.53;5102161;28;20011;-74
2023/05/14 00:40:28;;;;;;;9.38;5.63;;;;;;;-140.66;100.00;55571.53;5116444;28;20020;-75
2023/05/14 00:43:14;;;;;;;9.93;6.15;;;;;;;-140.66;100.00;55571.53;5117852;28;20471;-75
2023/05/14 00:46:00;;;;;;;7.88;5.70;;;;;;;-140.66;100.00;55571.53;5116906;28;20042;-74
2023/05/14 00:48:46;;;;;;;9.38;5.63;;;;;;;-140.66;100.00;55571.53;5117814;28;20027;-75
2023/05/14 00:51:32;;;;;;;8.18;5.35;;;;;;;-140.66;100.00;55571.53;5117171;28;20098;-75
2023/05/14 00:54:19;;;;;;;8.93;5.57;;;;;;;-140.66;100.00;55571.53;5117726;28;20027;-74
2023/05/14 00:57:05;;;;;;;9.60;6.10;;;;;;;-140.66;100.00;55571.53;5117298;28;20092;-74
2023/05/14 00:59:51;;;;;;;11.25;5.68;;;;;;;-140.66;100.00;55571.53;5103526;28;20028;-76
2023/05/14 01:02:37;;;;;;;9.75;5.90;;;;;;;-140.66;100.00;55571.53;5116632;28;20031;-74
2023/05/14 01:05:26;;;;;;;8.02;5.97;;;;;;;-140.66;100.00;55571.53;5116787;28;20130;-73
2023/05/14 01:08:38;;;;;;;10.68;6.00;;;;;;;-140.66;100.00;55571.53;5102492;28;20051;-74
2023/05/14 01:11:31;;;;;;;7.57;5.93;;;;;;;-140.66;100.00;55571.53;5101866;28;20054;-74
2023/05/14 01:14:28;;;;;;;8.38;5.97;;;;;;;-140.66;100.00;55571.53;5103426;28;20023;-74
2023/05/14 01:17:18;;;;;;;10.23;6.38;;;;;;;-140.66;100.00;55571.53;5117224;28;20031;-73
2023/05/14 01:20:05;;;;;;;10.50;6.00;;;;;;;-140.66;100.00;55571.53;5116704;28;20409;-72
2023/05/14 01:22:51;;;;;;;9.77;5.72;;;;;;;-140.66;100.00;55571.53;5102957;28;20027;-73
2023/05/14 01:25:37;;;;;;;7.43;5.40;;;;;;;-140.66;100.00;55571.53;5116674;28;20456;-74
2023/05/14 01:28:31;;;;;;;7.93;5.20;;;;;;;-140.66;100.00;55571.53;5101503;28;20094;-74
2023/05/14 01:31:23;;;;;;;9.52;5.30;;;;;;;-140.66;100.00;55571.53;5102070;28;20027;-74
2023/05/14 01:34:11;;;;;;;10.98;5.63;;;;;;;-140.66;100.00;55571.53;5116709;28;20024;-73
2023/05/14 01:37:01;;;;;;;10.27;5.70;;;;;;;-140.66;100.00;55571.53;5117041;28;20023;-74
2023/05/14 01:39:49;;;;;;;8.20;5.50;;;;;;;-140.66;100.00;55571.53;5116330;28;20028;-75
2023/05/14 01:42:36;;;;;;;11.20;6.05;;;;;;;-140.66;100.00;55571.53;5116755;28;20030;-74
2023/05/14 01:45:23;;;;;;;11.48;6.30;;;;;;;-140.66;100.00;55571.53;5116492;28;20038;-74
2023/05/14 01:48:09;;;;;;;9.88;6.30;;;;;;;-140.66;100.00;55571.53;5116184;28;20031;-76
2023/05/14 01:50:55;;;;;;;11.50;5.60;;;;;;;-140.66;100.00;55571.53;5116027;28;20106;-74
2023/05/14 01:53:40;;;;;;;6.85;5.13;;;;;;;-140.66;100.00;55571.53;5116593;28;20129;-73
2023/05/14 01:56:26;;;;;;;10.23;5.82;;;;;;;-140.66;100.00;55571.53;5102398;28;20336;-74
2023/05/14 01:59:12;;;;;;;9.82;5.75;;;;;;;-140.66;100.00;55571.53;5116598;28;20016;-75
2023/05/14 02:01:58;;;;;;;9.25;5.88;;;;;;;-140.66;100.00;55571.53;5101029;28;20423;-74
2023/05/14 02:04:43;;;;;;;8.57;5.55;;;;;;;-140.66;100.00;55571.53;5116310;28;20091;-74
2023/05/14 02:07:29;;;;;;;8.05;5.47;;;;;;;-140.66;100.00;55571.53;5116201;28;20031;-75
2023/05/14 02:10:15;;;;;;;11.93;5.72;;;;;;;-140.66;100.00;55571.53;5115225;28;20039;-75
2023/05/14 02:13:02;;;;;;;7.38;5.88;;;;;;;-140.66;100.00;55571.53;5115634;28;20484;-74
2023/05/14 02:15:48;;;;;;;8.43;6.00;;;;;;;-140.66;100.00;55571.53;5115877;28;20111;-74
2023/05/14 02:18:34;;;;;;;11.77;6.05;;;;;;;-140.66;100.00;55571.53;5100907;28;20161;-74
2023/05/14 02:21:20;;;;;;;11.07;6.47;;;;;;;-140.66;100.00;55571.53;5100512;28;20481;-74
2023/05/14 02:24:05;;;;;;;14.82;6.65;;;;;;;-140.66;100.00;55571.53;5100754;28;20456;-75
2023/05/14 02:26:51;;;;;;;11.00;6.50;;;;;;;-140.66;100.00;55571.53;5114831;28;20019;-76
2023/05/14 02:29:37;;;;;;;9.75;6.20;;;;;;;-140.66;100.00;55571.53;5086412;28;20040;-74
2023/05/14 02:32:26;;;;;;;9.65;6.80;;;;;;;-140.66;100.00;55571.53;5116024;28;20048;-73
2023/05/14 02:35:12;;;;;;;11.60;6.35;;;;;;;-140.66;100.00;55571.53;5115884;28;20050;-74
2023/05/14 02:37:58;;;;;;;13.35;6.15;;;;;;;-140.66;100.00;55571.53;5115791;28;20328;-75
2023/05/14 02:40:44;;;;;;;9.10;6.20;;;;;;;-140.66;100.00;55571.53;5100151;28;20031;-75
2023/05/14 02:43:29;;;;;;;10.18;6.18;;;;;;;-140.66;100.00;55571.53;5100004;28;20031;-75
2023/05/14 02:46:15;;;;;;;9.35;6.15;;;;;;;-140.66;100.00;55571.53;5115557;28;20031;-75
2023/05/14 02:49:01;;;;;;;10.07;5.97;;;;;;;-140.66;100.00;55571.53;5100353;28;20505;-75
2023/05/14 02:51:47;;;;;;;9.55;6.30;;;;;;;-140.66;100.00;55571.53;5115214;28;20023;-75
2023/05/14 02:54:33;;;;;;;8.75;5.90;;;;;;;-140.66;100.00;55571.53;5100384;28;20141;-74
2023/05/14 02:57:20;;;;;;;15.60;6.45;;;;;;;-140.66;100.00;55571.53;5115302;28;20039;-75
2023/05/14 03:00:06;;;;;;;11.02;6.15;;;;;;;-140.66;100.00;55571.53;5100287;28;20053;-75
2023/05/14 03:02:52;;;;;;;6.38;5.28;;;;;;;-140.66;100.00;55571.53;5115364;28;20051;-75
2023/05/14 03:05:37;;;;;;;7.78;5.72;;;;;;;-140.66;100.00;55571.53;5114581;28;20028;-75
2023/05/14 03:08:23;;;;;;;6.30;5.10;;;;;;;-140.66;100.00;55571.53;5099510;28;20023;-75
2023/05/14 03:11:09;;;;;;;8.93;5.28;;;;;;;-140.66;100.00;55571.53;5114671;28;20020;-74
2023/05/14 03:13:55;;;;;;;7.13;5.53;;;;;;;-140.66;100.00;55571.53;5114819;28;20440;-74
2023/05/14 03:16:41;;;;;;;15.95;6.00;;;;;;;-140.66;100.00;55571.53;5115210;28;20038;-75
2023/05/14 03:19:26;;;;;;;7.15;5.72;;;;;;;-140.66;100.00;55571.53;5123366;28;20042;-75
2023/05/14 03:22:12;;;;;;;8.50;5.80;;;;;;;-140.66;100.00;55571.53;5099866;28;20059;-73
2023/05/14 03:24:58;;;;;;;10.77;6.15;;;;;;;-140.66;100.00;55571.53;5112501;28;20035;-74
2023/05/14 03:27:43;;;;;;;10.27;6.38;;;;;;;-140.66;100.00;55571.53;5127759;28;20051;-75
2023/05/14 03:30:29;;;;;;;8.73;6.55;;;;;;;-140.66;100.00;55571.53;5099922;28;20041;-74
2023/05/14 03:33:15;;;;;;;9.32;6.22;;;;;;;-140.66;100.00;55571.53;5099942;28;20088;-74
2023/05/14 03:36:01;;;;;;;12.15;5.90;;;;;;;-140.66;100.00;55571.53;5114529;28;20027;-74
2023/05/14 03:38:47;;;;;;;8.82;6.25;;;;;;;-140.66;100.00;55571.53;5101366;28;20169;-75
2023/05/14 03:41:33;;;;;;;8.20;6.43;;;;;;;-140.66;100.00;55571.53;5114548;28;20023;-74
2023/05/14 03:44:18;;;;;;;11.65;6.15;;;;;;;-140.66;100.00;55571.53;5115089;28;20035;-74
2023/05/14 03:47:04;;;;;;;8.32;6.40;;;;;;;-140.66;100.00;55571.53;5115198;28;20028;-74
2023/05/14 03:49:50;;;;;;;12.13;6.80;;;;;;;-140.66;100.00;55571.53;5120760;28;20114;-75
2023/05/14 03:52:36;;;;;;;9.43;6.25;;;;;;;-140.66;100.00;55571.53;5114648;28;20022;-76
2023/05/14 03:55:22;;;;;;;9.15;6.00;;;;;;;-140.66;100.00;55571.53;5115942;28;20425;-76
2023/05/14 03:58:12;;;;;;;7.43;5.63;;;;;;;-140.66;100.00;55571.53;5118678;28;20027;-76
2023/05/14 04:00:59;;;;;;;7.95;5.88;;;;;;;-140.66;100.00;55571.53;5117726;28;20020;-76
2023/05/14 04:03:44;;;;;;;8.25;5.95;;;;;;;-140.66;100.00;55571.53;5118815;28;20034;-75
2023/05/14 04:06:31;;;;;;;10.27;6.18;;;;;;;-140.66;100.00;55571.53;5103661;28;20039;-74
2023/05/14 04:09:17;;;;;;;8.95;5.80;;;;;;;-140.66;100.00;55571.53;5118597;28;20385;-74
2023/05/14 04:12:03;;;;;;;9.50;5.82;;;;;;;-140.66;100.00;55571.53;5103572;28;20106;-75
2023/05/14 04:14:49;;;;;;;8.43;6.05;;;;;;;-140.66;100.00;55571.53;5103693;28;20031;-75
2023/05/14 04:17:35;;;;;;;10.75;6.60;;;;;;;-140.66;100.00;55571.53;5117585;28;20066;-75
2023/05/14 04:20:21;;;;;;;8.38;6.57;;;;;;;-140.66;100.00;55571.53;5117404;28;20032;-74
2023/05/14 04:23:06;;;;;;;9.18;6.85;;;;;;;-140.66;100.00;55571.53;5117630;28;20068;-75
2023/05/14 04:25:52;;;;;;;10.80;6.68;;;;;;;-140.66;100.00;55571.53;5117544;28;20027;-75
2023/05/14 04:28:38;;;;;;;11.43;6.97;;;;;;;-140.66;100.00;55571.53;5116999;28;20463;-75
2023/05/14 04:31:23;;;;;;;12.35;7.35;;;;;;;-140.66;100.00;55571.53;5119581;28;20027;-74
2023/05/14 04:34:09;;;;;;;12.75;8.00;;;;;;;-140.66;100.00;55571.53;5106324;28;20031;-75
2023/05/14 04:36:55;;;;;;;11.18;7.00;;;;;;;-140.66;100.00;55571.53;5120280;28;20061;-75
2023/05/14 04:39:41;;;;;;;20.13;8.20;;;;;;;-140.66;100.00;55571.53;5120632;28;20043;-75
2023/05/14 04:42:27;;;;;;;12.63;7.57;;;;;;;-140.66;100.00;55571.53;5102572;28;20035;-76
2023/05/14 04:45:13;;;;;;;11.10;6.95;;;;;;;-140.66;100.00;55571.53;5118202;28;20118;-75
2023/05/14 04:47:59;;;;;;;13.05;7.38;;;;;;;-140.66;100.00;55571.53;5116888;28;20023;-75
2023/05/14 04:50:44;;;;;;;11.23;7.78;;;;;;;-140.66;100.00;55571.53;5117575;28;20024;-75
2023/05/14 04:53:30;;;;;;;12.57;7.82;;;;;;;-140.66;100.00;55571.53;5117808;28;20027;-75
2023/05/14 04:56:16;;;;;;;13.02;7.78;;;;;;;-140.66;100.00;55571.53;5117690;28;20015;-75
2023/05/14 04:59:02;;;;;;;12.23;7.55;;;;;;;-140.66;100.00;55571.53;5102184;28;20102;-74
2023/05/14 05:01:47;;;;;;;12.77;7.95;;;;;;;-140.66;100.00;55571.53;5102699;28;20023;-74
2023/05/14 05:04:33;;;;;;;11.32;7.60;;;;;;;-140.66;100.00;55571.53;5117344;28;20517;-75
2023/05/14 05:07:19;;;;;;;12.68;7.80;;;;;;;-140.66;100.00;55571.53;5117756;28;20081;-75
2023/05/14 05:10:05;;;;;;;19.10;7.70;;;;;;;-140.66;100.00;55571.53;5116540;28;20027;-75
2023/05/14 05:12:51;;;;;;;12.80;7.90;;;;;;;-140.66;100.00;55571.53;5117702;28;20020;-75
2023/05/14 05:15:37;;;;;;;11.75;7.38;;;;;;;-140.66;100.00;55571.53;5116448;28;20027;-75
2023/05/14 05:18:22;;;;;;;10.00;6.72;;;;;;;-140.66;100.00;55571.53;5117351;28;20172;-75
2023/05/14 05:21:08;;;;;;;11.30;6.38;;;;;;;-140.66;100.00;55571.53;5116641;28;20030;-75
2023/05/14 05:23:54;;;;;;;10.57;6.60;;;;;;;-140.66;100.00;55571.53;5116662;28;20345;-75
2023/05/14 05:26:40;;;;;;;8.52;6.03;;;;;;;-140.66;100.00;55571.53;5117393;28;20035;-76
2023/05/14 05:29:26;;;;;;;13.07;5.63;;;;;;;-140.66;100.00;55571.53;5116374;28;20139;-76
2023/05/14 05:32:11;;;;;;;7.78;6.05;;;;;;;-140.66;100.00;55571.53;5117619;28;20028;-76
2023/05/14 05:34:57;;;;;;;10.82;5.30;;;;;;;-140.66;100.00;55571.53;5116785;28;20066;-75
2023/05/14 05:37:44;;;;;;;7.88;5.78;;;;;;;-140.66;100.00;55571.53;5116269;28;20102;-76
2023/05/14 05:40:29;;;;;;;7.57;5.38;;;;;;;-140.66;100.00;55571.53;5116696;28;20070;-75
2023/05/14 05:43:15;;;;;;;11.27;5.20;;;;;;;-140.66;100.00;55571.53;5101845;28;20092;-75
2023/05/14 05:46:01;;;;;;;13.20;5.70;;;;;;;-140.66;100.00;55571.53;5116766;28;20023;-75
2023/05/14 05:48:47;;;;;;;10.90;4.97;;;;;;;-140.66;100.00;55571.53;5116368;28;20427;-75
2023/05/14 05:51:32;;;;;;;8.40;5.38;;;;;;;-140.66;100.00;55571.53;5115643;28;20111;-75
2023/05/14 05:54:18;;;;;;;8.25;4.95;;;;;;;-140.66;100.00;55571.53;5116845;28;20386;-75
2023/05/14 05:57:04;;;;;;;7.65;5.10;;;;;;;-140.66;100.00;55571.53;5116253;28;20019;-75
2023/05/14 05:59:50;;;;;;;9.02;5.10;;;;;;;-140.66;100.00;55571.53;5101169;28;20110;-75
2023/05/14 06:02:35;;;;;;;12.20;5.32;;;;;;;-140.66;100.00;55571.53;5115362;28;20353;-75
2023/05/14 06:05:21;;;;;;;7.57;4.70;;;;;;;-140.66;100.00;55571.53;5101494;28;20435;-76
2023/05/14 06:08:07;;;;;;;10.95;4.63;;;;;;;-140.66;100.00;55571.53;5115260;28;20114;-75
2023/05/14 06:10:53;;;;;;;10.02;5.07;;;;;;;-140.66;100.00;55571.53;5115843;28;20035;-74
2023/05/14 06:13:38;;;;;;;8.70;4.80;;;;;;;-140.66;100.00;55571.53;5100614;28;20027;-74
2023/05/14 06:16:24;;;;;;;8.60;5.03;;;;;;;-140.66;100.00;55571.53;5115292;28;20038;-74
2023/05/14 06:19:10;;;;;;;12.23;4.93;;;;;;;-140.66;100.00;55571.53;5100988;28;20027;-74
2023/05/14 06:21:56;;;;;;;8.00;4.85;;;;;;;-140.66;100.00;55571.53;5101048;28;20031;-75
2023/05/14 06:24:42;;;;;;;7.70;4.60;;;;;;;-140.66;100.00;55571.53;5114954;28;20096;-76
2023/05/14 06:27:27;;;;;;;7.03;4.45;;;;;;;-140.66;100.00;55571.53;5115222;28;20108;-75
2023/05/14 06:30:14;;;;;;;6.25;4.82;;;;;;;-140.66;100.00;55571.53;5115745;28;20046;-75
2023/05/14 06:33:00;;;;;;;9.68;5.00;;;;;;;-140.66;100.00;55571.53;5115234;28;20024;-74
2023/05/14 06:35:45;;;;;;;8.73;4.55;;;;;;;-140.66;100.00;55571.53;5116454;28;20027;-74
2023/05/14 06:38:31;;;;;;;6.65;4.50;;;;;;;-140.66;100.00;55571.53;5138426;28;20022;-76
2023/05/14 06:41:17;;;;;;;7.22;4.85;;;;;;;-140.66;100.00;55571.53;5101153;28;20517;-76
2023/05/14 06:44:03;;;;;;;6.05;3.75;;;;;;;-140.66;100.00;55571.53;5100498;28;20042;-76
2023/05/14 06:46:48;;;;;;;6.35;4.05;;;;;;;-140.66;100.00;55571.53;5115211;28;20035;-75
2023/05/14 06:49:34;;;;;;;6.93;3.20;;;;;;;-140.66;100.00;55571.53;5100923;28;20035;-76
2023/05/14 06:52:20;;;;;;;6.38;3.28;;;;;;;-140.66;100.00;55571.53;5114750;28;20082;-76
2023/05/14 06:55:06;;;;;;;4.88;2.83;;;;;;;-140.66;100.00;55571.53;5103368;28;20047;-75
2023/05/14 06:57:52;;;;;;;4.25;3.10;;;;;;;-140.66;100.00;55571.53;5117084;28;20122;-76
2023/05/14 07:00:39;;;;;;;5.45;2.97;;;;;;;-140.66;100.00;55571.53;5100481;28;20080;-75
2023/05/14 07:03:24;;;;;;;4.22;2.80;;;;;;;-140.66;100.00;55571.53;5115336;28;20110;-76
2023/05/14 07:06:10;;;;;;;5.03;3.15;;;;;;;-140.66;100.00;55571.53;5100822;28;20034;-76
2023/05/14 07:08:56;;;;;;;4.40;2.90;;;;;;;-140.66;100.00;55571.53;5115534;28;20031;-75
2023/05/14 07:11:42;;;;;;;5.00;2.50;;;;;;;-140.66;100.00;55571.53;5113895;28;20023;-74
2023/05/14 07:14:27;;;;;;;4.00;2.60;;;;;;;-140.66;100.00;55571.53;5099775;28;20340;-75
2023/05/14 07:17:14;;;;;;;5.80;3.00;;;;;;;-140.66;100.00;55571.53;5114972;28;20019;-74
2023/05/14 07:19:59;;;;;;;7.90;2.70;;;;;;;-140.66;100.00;55571.53;5100401;28;20374;-75
2023/05/14 07:22:45;;;;;;;7.32;3.30;;;;;;;-140.66;100.00;55571.53;5114291;28;20088;-75
2023/05/14 07:25:31;;;;;;;4.00;2.80;;;;;;;-140.66;100.00;55571.53;5100530;28;20418;-76
2023/05/14 07:28:17;;;;;;;7.60;3.40;;;;;;;-140.66;100.00;55571.53;5100871;28;20372;-75
2023/05/14 07:31:07;;;;;;;7.05;3.03;;;;;;;-140.66;100.00;55571.53;5103874;28;20545;-75
2023/05/14 07:33:53;;;;;;;7.05;2.80;;;;;;;-140.66;100.00;55571.53;5104033;28;20131;-74
2023/05/14 07:36:40;;;;;;;14.48;4.03;;;;;;;-140.66;100.00;55571.53;5103951;28;20038;-75
2023/05/14 07:39:25;;;;;;;5.32;3.03;;;;;;;-140.66;100.00;55571.53;5105405;28;20050;-77
2023/05/14 07:42:11;;;;;;;6.95;2.97;;;;;;;-140.66;100.00;55571.53;5119716;28;20065;-76
2023/05/14 07:44:57;;;;;;;7.93;2.72;;;;;;;-140.66;100.00;55571.53;5102527;28;20095;-76
2023/05/14 07:47:43;;;;;;;10.75;3.30;;;;;;;-140.66;100.00;55571.53;5103312;28;20100;-74
2023/05/14 07:50:28;;;;;;;5.70;2.78;;;;;;;-140.66;100.00;55571.53;5104876;28;20096;-76
2023/05/14 07:53:14;;;;;;;11.48;3.30;;;;;;;-140.66;100.00;55571.53;5117133;28;20028;-75
2023/05/14 07:56:00;;;;;;;11.00;3.35;;;;;;;-140.66;100.00;55571.53;5118207;28;20106;-76
2023/05/14 07:58:46;;;;;;;8.00;2.83;;;;;;;-140.66;100.00;55571.53;5103282;28;20156;-76
2023/05/14 08:01:31;;;;;;;18.58;3.38;;;;;;;-140.66;100.00;55571.53;5116618;28;20115;-76
2023/05/14 08:04:17;;;;;;;6.07;2.78;;;;;;;-140.66;100.00;55571.53;5118885;28;20027;-76
2023/05/14 08:07:04;;;;;;;11.48;3.22;;;;;;;-140.66;100.00;55571.53;5118308;28;20027;-75
2023/05/14 08:09:50;;;;;;;7.70;2.90;;;;;;;-140.66;100.00;55571.53;5119185;28;20033;-75
2023/05/14 08:12:36;;;;;;;8.98;3.17;;;;;;;-140.66;100.00;55571.53;5103439;28;20024;-74
2023/05/14 08:15:22;;;;;;;16.88;3.47;;;;;;;-140.66;100.00;55571.53;5117253;28;20030;-75
2023/05/14 08:18:07;;;;;;;4.18;2.95;;;;;;;-140.66;100.00;55571.53;5132394;27;20055;-75
2023/05/14 08:20:53;;;;;;;7.90;3.05;;;;;;;-140.66;100.00;55571.53;5104633;28;20028;-75
2023/05/14 08:23:39;;;;;;;8.68;3.30;;;;;;;-140.66;100.00;55571.53;5120998;27;20027;-75
2023/05/14 08:26:25;;;;;;;6.65;2.90;;;;;;;-140.66;100.00;55571.53;5104000;28;20073;-75
2023/05/14 08:29:10;;;;;;;10.32;3.10;;;;;;;-140.66;100.00;55571.53;5117400;28;20085;-75
2023/05/14 08:31:56;;;;;;;6.28;2.90;;;;;;;-140.66;100.00;55571.53;5104216;28;20099;-76
2023/05/14 08:34:42;;;;;;;12.10;3.13;;;;;;;-140.66;100.00;55571.53;5103360;28;20042;-75
2023/05/14 08:37:27;;;;;;;8.07;3.28;;;;;;;-140.66;100.00;55571.53;5103127;28;20095;-75
2023/05/14 08:40:13;;;;;;;4.72;3.00;;;;;;;-140.66;100.00;55571.53;5130807;27;20452;-76
2023/05/14 08:43:00;;;;;;;6.57;3.00;;;;;;;-140.66;100.00;55571.53;5118074;28;20032;-75
2023/05/14 08:45:49;;;;;;;5.40;2.90;;;;;;;-140.66;100.00;55571.53;5117455;28;20473;-75
2023/05/14 08:48:36;;;;;;;5.00;2.85;;;;;;;-140.66;100.00;55571.53;5117400;28;20028;-74
2023/05/14 08:51:23;;;;;;;8.75;2.97;;;;;;;-140.66;100.00;55571.53;5117954;28;20038;-76
2023/05/14 08:54:13;;;;;;;4.90;2.97;;;;;;;-140.66;100.00;55571.53;5117848;28;20051;-75
2023/05/14 08:56:59;;;;;;;7.03;2.90;;;;;;;-140.66;100.00;55571.53;5104757;28;20050;-76
2023/05/14 08:59:45;;;;;;;6.50;3.00;;;;;;;-140.66;100.00;55571.53;5118248;28;20038;-75
2023/05/14 09:02:31;;;;;;;5.28;2.83;;;;;;;-140.66;100.00;55571.53;5103012;28;20038;-75
2023/05/14 09:05:18;;;;;;;8.95;3.00;;;;;;;-140.66;100.00;55571.53;5102617;28;20443;-75
2023/05/14 09:08:04;;;;;;;4.22;2.88;;;;;;;-140.66;100.00;55571.53;5116259;28;20023;-76
2023/05/14 09:10:50;;;;;;;7.55;2.53;;;;;;;-140.66;100.00;55571.53;5104215;28;20460;-75
2023/05/14 09:13:37;;;;;;;6.68;2.88;;;;;;;-140.66;100.00;55571.53;5125738;28;20049;-75
2023/05/14 09:16:24;;;;;;;8.23;2.90;;;;;;;-140.66;100.00;55571.53;5118495;28;20066;-76
2023/05/14 09:19:11;;;;;;;6.90;3.28;;;;;;;-140.66;100.00;55571.53;5118750;28;20027;-75
2023/05/14 09:21:58;;;;;;;5.32;2.70;;;;;;;-140.66;100.00;55571.53;5118848;28;20368;-75
2023/05/14 09:24:44;;;;;;;10.93;3.38;;;;;;;-140.66;100.00;55571.53;5117729;28;20028;-76
2023/05/14 09:27:32;;;;;;;7.70;2.97;;;;;;;-140.66;100.00;55571.53;5118046;28;20105;-76
2023/05/14 09:30:17;;;;;;;8.02;3.80;;;;;;;-140.66;100.00;55571.53;5119588;28;20035;-76
2023/05/14 09:33:03;;;;;;;10.50;3.58;;;;;;;-140.66;100.00;55571.53;5117538;28;20351;-76
2023/05/14 09:35:49;;;;;;;7.03;3.08;;;;;;;22.43;37.73;101743.53;5119104;28;20360;-75
2023/05/14 09:38:35;;;;;;;8.52;3.30;;;;;;;22.22;37.58;101736.59;5104076;28;20055;-75
2023/05/14 09:41:21;;;;;;;7.85;3.28;;;;;;;22.99;37.78;101740.69;5102885;28;20149;-76
2023/05/14 09:44:07;;;;;;;9.10;3.33;;;;;;;22.67;38.06;101728.13;5116733;28;20043;-74
2023/05/14 09:46:53;;;;;;;8.82;3.15;;;;;;;23.04;38.16;101726.13;5117438;28;20108;-75
2023/05/14 09:49:39;;;;;;;6.80;3.20;;;;;;;23.20;38.38;101729.72;5119110;28;20443;-76
2023/05/14 09:52:25;;;;;;;5.32;2.97;;;;;;;22.42;38.60;101739.16;5129763;27;20026;-75
2023/05/14 09:55:11;;;;;;;7.82;3.15;;;;;;;22.24;37.92;101745.41;5117414;28;20112;-75
2023/05/14 09:57:57;;;;;;;11.70;3.20;;;;;;;22.27;38.39;101747.91;5102031;28;20027;-74
2023/05/14 10:00:44;;;;;;;5.22;3.05;;;;;;;22.47;37.77;101731.78;5117821;28;20024;-74
2023/05/14 10:03:31;;;;;;;5.93;3.22;;;;;;;21.87;38.62;101736.59;5116676;28;20423;-74
2023/05/14 10:06:20;;;;;;;8.15;3.15;;;;;;;22.44;38.31;101733.72;5116354;28;20023;-75
2023/05/14 10:09:12;;;;;;;6.30;3.33;;;;;;;22.36;38.11;101728.78;5128558;27;20080;-75
2023/05/14 10:12:00;;;;;;;9.27;3.60;;;;;;;22.31;37.57;101730.78;5115589;28;20023;-75
2023/05/14 10:14:52;;;;;;;14.00;3.40;;;;;;;22.43;37.22;101743.53;5101815;28;20049;-76
2023/05/14 10:17:39;;;;;;;10.18;3.65;;;;;;;22.45;36.41;101735.44;5115851;28;20016;-74
2023/05/14 10:20:26;;;;;;;11.13;3.30;;;;;;;22.56;36.35;101731.34;5116467;28;20092;-76
2023/05/14 10:23:12;;;;;;;6.60;3.28;;;;;;;22.15;38.08;101735.16;5130051;27;20019;-75
2023/05/14 10:25:59;;;;;;;6.03;3.40;;;;;;;21.91;38.19;101724.81;5116107;28;20035;-75
2023/05/14 10:28:45;;;;;;;7.63;3.40;;;;;;;21.98;39.13;101719.09;5108374;27;20103;-76
2023/05/14 10:31:48;;;;;;;6.20;3.40;;;;;;;22.47;38.24;101706.91;5074571;28;20436;-76
2023/05/14 10:34:39;;;;;;;8.70;3.50;;;;;;;22.75;37.62;101716.09;5073318;28;20032;-75
2023/05/14 10:37:25;;;;;;;10.32;3.15;;;;;;;22.63;37.14;101702.50;5074455;28;20441;-78
2023/05/14 10:40:12;;;;;;;7.35;3.20;;;;;;;22.46;37.91;101691.75;5073545;28;20032;-76
2023/05/14 10:42:58;;;;;;;6.20;3.15;;;;;;;21.98;38.77;101686.25;5073371;28;20036;-76
2023/05/14 10:45:46;;;;;;;6.28;3.35;;;;;;;22.73;38.42;101687.72;5074023;28;20060;-76
2023/05/14 10:48:33;;;;;;;6.65;3.30;;;;;;;23.30;37.84;101676.59;5073718;28;20066;-76
2023/05/14 10:51:21;;;;;;;6.55;3.03;;;;;;;23.20;37.58;101672.72;5072947;28;20020;-76
2023/05/14 10:54:07;;;;;;;7.30;3.20;;;;;;;23.19;37.68;101671.81;5073451;28;20506;-76
2023/05/14 10:56:53;;;;;;;5.68;2.97;;;;;;;22.94;38.12;101667.88;5073518;28;20111;-76
2023/05/14 10:59:42;;;;;;;9.05;2.97;;;;;;;23.21;37.52;101653.06;5078198;28;20373;-75
2023/05/14 11:02:31;;;;;;;4.78;2.72;;;;;;;22.86;37.78;101652.25;5077957;28;20057;-75
2023/05/14 11:05:17;;;;;;;7.40;3.20;;;;;;;23.00;38.09;101636.34;5078679;28;20111;-75
2023/05/14 11:08:06;;;;;;;5.82;3.38;;;;;;;23.03;38.27;101630.81;5101056;28;20421;-76
2023/05/14 11:10:53;;;;;;;4.93;2.90;;;;;;;23.42;38.84;101628.66;5100320;28;20111;-75
2023/05/14 11:13:40;;;;;;;7.40;3.30;;;;;;;23.12;39.02;101619.59;5073323;28;20429;-76
2023/05/14 11:16:29;;;;;;;5.75;2.95;;;;;;;22.91;39.79;101612.78;5073762;28;20036;-75
2023/05/14 11:19:20;;;;;;;6.82;3.15;;;;;;;23.04;39.44;101605.84;5072631;28;20036;-76
2023/05/14 11:22:06;;;;;;;5.25;3.30;;;;;;;23.01;40.29;101607.78;5101644;28;20032;-77
2023/05/14 11:24:52;;;;;;;5.53;3.10;;;;;;;22.69;39.82;101625.56;5067393;28;20475;-77
2023/05/14 11:27:38;;;;;;;6.18;2.90;;;;;;;23.25;39.65;101622.50;5081356;28;20131;-77
2023/05/14 11:30:24;;;;;;;8.40;3.42;;;;;;;23.89;40.69;101617.91;5127447;28;20055;-76
2023/05/14 11:33:10;;;;;;;4.68;3.00;;;;;;;23.19;39.59;101614.81;5114331;28;20355;-77
2023/05/14 11:35:55;;;;;;;4.32;2.97;;;;;;;23.42;39.59;101612.59;5114241;28;20177;-76
2023/05/14 11:38:50;;;;;;;3.60;2.78;;;;;;;23.27;40.76;101618.81;5112479;28;20371;-77
2023/05/14 11:41:35;;;;;;;5.88;2.65;;;;;;;22.94;40.64;101644.69;5112661;28;20051;-77
2023/05/14 11:44:21;;;;;;;9.27;3.03;;;;;;;22.37;41.50;101628.16;5114292;28;20420;-77
2023/05/14 11:47:07;;;;;;;5.15;2.90;;;;;;;22.29;41.93;101600.97;5102194;28;20027;-77
2023/05/14 11:49:53;;;;;;;4.50;2.72;;;;;;;22.67;41.71;101619.44;5118609;28;20023;-77
2023/05/14 11:52:40;;;;;;;7.40;2.97;;;;;;;22.83;40.96;101617.66;5101163;28;20044;-74
2023/05/14 11:55:26;;;;;;;6.15;2.95;;;;;;;23.27;41.17;101609.94;5112867;28;20448;-73
2023/05/14 11:58:12;;;;;;;4.38;2.88;;;;;;;23.34;40.33;101606.81;5115646;28;20066;-82
2023/05/14 12:00:58;;;;;;;6.80;2.63;;;;;;;24.30;40.18;101602.97;5100859;28;20097;-80
2023/05/14 12:03:44;;;;;;;6.28;3.10;;;;;;;24.24;39.74;101597.13;5099360;28;20045;-78
2023/05/14 12:06:31;;;;;;;7.35;2.80;;;;;;;23.88;40.21;101589.44;5120510;28;20027;-76
2023/05/14 12:09:18;;;;;;;6.63;2.95;;;;;;;23.71;40.43;101569.94;5118117;28;20023;-76
2023/05/14 12:12:11;;;;;;;6.53;2.72;;;;;;;24.34;39.30;101577.72;5114385;28;20020;-76
2023/05/14 12:14:58;;;;;;;7.63;3.00;;;;;;;24.45;40.00;101580.63;5113308;28;20106;-76
2023/05/14 12:17:50;;;;;;;4.40;2.72;;;;;;;25.09;39.34;101575.69;5088798;28;20097;-75
2023/05/14 12:20:36;;;;;;;9.82;3.03;;;;;;;25.18;38.98;101566.16;5096294;28;20043;-75
2023/05/14 12:23:29;;;;;;;6.05;3.00;;;;;;;25.06;38.55;101572.31;5096367;28;20042;-75
2023/05/14 12:26:15;;;;;;;7.95;2.75;;;;;;;24.69;40.12;101556.81;5096634;28;20070;-76
2023/05/14 12:29:02;;;;;;;6.78;3.05;;;;;;;24.89;39.65;101540.34;5081271;28;20058;-76
2023/05/14 12:31:49;;;;;;;3.88;2.58;;;;;;;24.02;39.52;101535.94;5096241;28;20117;-77
2023/05/14 12:34:36;;;;;;;3.60;2.70;;;;;;;24.48;40.09;101540.25;5096091;28;20035;-75
2023/05/14 12:37:22;;;;;;;7.25;2.90;;;;;;;24.33;39.19;101526.91;5096397;28;20478;-76
2023/05/14 12:40:08;;;;;;;5.38;2.80;;;;;;;24.24;40.28;101536.41;5095976;28;20035;-76